createdAt,value
2019-02-22T00:01:40.746Z,135.57
2019-02-22T00:04:11.409Z,129.60
2019-02-22T00:06:42.066Z,135.43
2019-02-22T00:09:12.778Z,140.20
2019-02-22T00:11:43.389Z,149.07
2019-02-22T00:14:14.077Z,160.40
2019-02-22T00:16:44.779Z,141.90
2019-02-22T00:19:15.485Z,132.57
2019-02-22T00:21:46.125Z,145.87
2019-02-22T00:24:16.759Z,137.07
2019-02-22T00:26:47.466Z,141.57
2019-02-22T00:29:18.153Z,142.93
2019-02-22T00:31:48.843Z,157.03
2019-02-22T00:34:19.622Z,144.30
2019-02-22T00:36:50.428Z,139.90
2019-02-22T00:39:21.228Z,137.80
2019-02-22T00:41:51.935Z,147.37
2019-02-22T00:44:22.702Z,146.27
2019-02-22T00:46:53.334Z,136.93
2019-02-22T00:49:24.038Z,141.60
2019-02-22T00:51:54.764Z,149.83
2019-02-22T00:54:25.404Z,160.73
2019-02-22T00:56:56.213Z,132.97
2019-02-22T00:59:28.438Z,164.93
2019-02-22T01:01:59.064Z,144.03
2019-02-22T01:04:29.761Z,142.20
2019-02-22T01:07:00.450Z,143.03
2019-02-22T01:09:31.110Z,144.93
2019-02-22T01:12:01.850Z,140.47
2019-02-22T01:14:32.590Z,158.17
2019-02-22T01:17:03.192Z,143.27
2019-02-22T01:19:33.937Z,155.43
2019-02-22T01:22:04.541Z,168.30
2019-02-22T01:24:35.841Z,148.37
2019-02-22T01:27:06.562Z,140.67
2019-02-22T01:29:38.122Z,132.30
2019-02-22T01:32:08.802Z,141.67
2019-02-22T01:34:39.522Z,146.27
2019-02-22T01:37:10.254Z,157.47
2019-02-22T01:39:42.455Z,146.30
2019-02-22T01:42:13.154Z,159.20
2019-02-22T01:44:43.798Z,150.83
2019-02-22T01:47:14.481Z,147.73
2019-02-22T01:49:45.217Z,154.60
2019-02-22T02:10:33.261Z,156.67
2019-02-22T02:13:04.182Z,157.47
2019-02-22T02:15:34.973Z,161.73
2019-02-22T02:18:07.033Z,160.27
2019-02-22T02:20:37.843Z,154.17
2019-02-22T02:23:09.473Z,158.63
2019-02-22T02:25:40.246Z,154.20
2019-02-22T02:28:11.069Z,175.47
2019-02-22T02:30:41.736Z,162.20
2019-02-22T02:33:12.468Z,157.83
2019-02-22T02:35:43.758Z,162.00
2019-02-22T02:38:14.490Z,170.27
2019-02-22T02:40:45.234Z,157.90
2019-02-22T02:43:16.104Z,155.33
2019-02-22T02:45:46.894Z,160.10
2019-02-22T02:48:17.551Z,163.73
2019-02-22T02:50:48.259Z,169.27
2019-02-22T02:53:19.162Z,162.90
2019-02-22T02:55:49.891Z,157.17
2019-02-22T02:58:20.778Z,165.90
2019-02-22T03:00:51.683Z,171.90
2019-02-22T03:03:22.427Z,155.27
2019-02-22T03:06:10.552Z,174.43
2019-02-22T03:08:41.343Z,170.17
2019-02-22T03:11:20.727Z,168.53
2019-02-22T03:13:44.747Z,172.27
2019-02-22T03:16:15.700Z,157.53
2019-02-22T03:18:46.830Z,169.33
2019-02-22T03:21:17.857Z,168.20
2019-02-22T03:23:49.155Z,164.53
2019-02-22T03:26:20.115Z,178.37
2019-02-22T03:28:51.183Z,173.97
2019-02-22T03:31:22.161Z,173.93
2019-02-22T03:33:53.094Z,178.67
2019-02-22T03:36:23.820Z,159.10
2019-02-22T03:38:54.598Z,194.43
2019-02-22T03:41:32.751Z,171.70
2019-02-22T03:43:58.722Z,179.80
2019-02-22T03:46:29.457Z,165.33
2019-02-22T03:49:00.518Z,168.43
2019-02-22T03:51:31.331Z,178.43
2019-02-22T03:54:03.342Z,162.77
2019-02-22T03:56:34.075Z,156.80
2019-02-22T03:59:04.967Z,142.20
2019-02-22T04:01:35.610Z,152.07
2019-02-22T04:04:07.494Z,152.90
2019-02-22T04:06:38.847Z,164.17
2019-02-22T04:09:12.595Z,163.83
2019-02-22T04:11:46.134Z,157.83
2019-02-22T04:14:15.811Z,168.80
2019-02-22T04:16:46.451Z,163.30
2019-02-22T04:19:17.109Z,150.47
2019-02-22T04:21:48.652Z,155.10
2019-02-22T04:24:19.385Z,165.33
2019-02-22T04:26:50.237Z,154.57
2019-02-22T04:29:21.146Z,162.13
2019-02-22T04:31:51.977Z,148.03
2019-02-22T04:34:22.678Z,160.93
2019-02-22T04:36:53.885Z,158.97
2019-02-22T04:39:24.722Z,159.20
2019-02-22T04:41:58.317Z,171.13
2019-02-22T04:44:27.990Z,158.37
2019-02-22T04:46:58.732Z,154.37
2019-02-22T04:49:29.447Z,162.20
2019-02-22T04:52:00.197Z,160.30
2019-02-22T04:54:31.350Z,169.73
2019-02-22T04:57:03.120Z,159.37
2019-02-22T04:59:34.160Z,173.93
2019-02-22T05:02:05.234Z,163.87
2019-02-22T05:04:35.975Z,146.97
2019-02-22T05:07:06.795Z,158.10
2019-02-22T05:09:37.575Z,170.00
2019-02-22T05:12:11.203Z,161.17
2019-02-22T05:14:40.833Z,147.30
2019-02-22T05:17:11.695Z,147.37
2019-02-22T05:19:43.626Z,153.43
2019-02-22T05:22:15.183Z,151.23
2019-02-22T05:24:45.936Z,151.23
2019-02-22T05:27:16.706Z,148.43
2019-02-22T05:29:47.579Z,148.33
2019-02-22T05:32:18.358Z,157.20
2019-02-22T05:34:49.090Z,155.37
2019-02-22T05:37:20.019Z,146.00
2019-02-22T05:39:51.224Z,157.30
2019-02-22T05:42:23.208Z,153.77
2019-02-22T05:44:55.122Z,151.47
2019-02-22T05:47:25.878Z,149.17
2019-02-22T05:49:56.591Z,150.80
2019-02-22T05:52:27.342Z,141.37
2019-02-22T05:54:59.107Z,149.93
2019-02-22T05:57:29.879Z,148.00
2019-02-22T06:00:00.670Z,144.60
2019-02-22T06:02:33.811Z,140.67
2019-02-22T06:05:04.182Z,139.03
2019-02-22T06:07:35.067Z,145.77
2019-02-22T06:10:09.688Z,138.07
2019-02-22T06:12:40.528Z,153.10
2019-02-22T06:15:11.335Z,139.17
2019-02-22T06:17:42.094Z,145.70
2019-02-22T06:20:12.902Z,135.50
2019-02-22T06:22:43.789Z,153.07
2019-02-22T06:25:16.106Z,143.90
2019-02-22T06:27:47.462Z,160.50
2019-02-22T06:30:18.247Z,142.93
2019-02-22T06:32:48.910Z,143.10
2019-02-22T06:35:19.659Z,149.87
2019-02-22T06:37:50.421Z,154.90
2019-02-22T06:40:21.131Z,146.87
2019-02-22T06:42:51.971Z,144.20
2019-02-22T06:45:22.738Z,135.83
2019-02-22T06:47:53.519Z,128.93
2019-02-22T06:50:33.656Z,159.03
2019-02-22T06:52:57.135Z,144.30
2019-02-22T06:55:27.959Z,145.87
2019-02-22T06:57:58.747Z,154.77
2019-02-22T07:00:29.420Z,153.33
2019-02-22T07:03:00.274Z,156.93
2019-02-22T07:05:31.184Z,145.40
2019-02-22T07:08:02.236Z,144.30
2019-02-22T07:10:52.629Z,148.70
2019-02-22T07:13:24.483Z,138.93
2019-02-22T07:15:55.520Z,153.77
2019-02-22T07:18:27.313Z,150.50
2019-02-22T07:20:58.342Z,150.07
2019-02-22T07:23:29.345Z,144.13
2019-02-22T07:26:01.061Z,158.50
2019-02-22T07:28:32.295Z,131.33
2019-02-22T07:31:03.175Z,160.00
2019-02-22T07:33:35.641Z,156.47
2019-02-22T07:36:06.522Z,156.83
2019-02-22T07:38:37.429Z,143.97
2019-02-22T07:41:08.263Z,142.43
2019-02-22T07:43:39.113Z,137.80
2019-02-22T07:46:09.953Z,149.77
2019-02-22T07:48:41.213Z,141.70
2019-02-22T07:51:12.077Z,146.73
2019-02-22T07:53:43.006Z,139.13
2019-02-22T07:56:13.713Z,138.90
2019-02-22T07:58:44.546Z,137.87
2019-02-22T08:01:15.345Z,130.87
2019-02-22T08:03:46.183Z,128.37
2019-02-22T08:06:16.952Z,119.63
2019-02-22T08:08:48.491Z,125.33
2019-02-22T08:11:20.414Z,114.53
2019-02-22T08:13:51.494Z,132.80
2019-02-22T08:16:22.283Z,119.80
2019-02-22T08:19:01.541Z,112.07
2019-02-22T08:21:26.333Z,113.70
2019-02-22T08:23:57.104Z,105.97
2019-02-22T08:26:27.816Z,101.60
2019-02-22T08:28:58.606Z,107.33
2019-02-22T08:31:29.571Z,100.27
2019-02-22T08:34:00.331Z,97.73
2019-02-22T08:36:31.230Z,107.30
2019-02-22T08:39:02.023Z,110.60
2019-02-22T08:41:34.406Z,107.67
2019-02-22T08:44:05.151Z,104.80
2019-02-22T08:46:35.989Z,100.93
2019-02-22T08:49:06.764Z,103.83
2019-02-22T08:51:37.552Z,98.47
2019-02-22T08:54:08.372Z,105.50
2019-02-22T08:56:39.243Z,99.20
2019-02-22T08:59:11.757Z,100.30
2019-02-22T09:01:43.631Z,94.63
2019-02-22T09:04:39.237Z,115.60
2019-02-22T09:07:13.195Z,102.80
2019-02-22T09:09:44.944Z,92.23
2019-02-22T09:12:15.839Z,99.80
2019-02-22T09:14:46.711Z,100.43
2019-02-22T09:17:17.503Z,102.67
2019-02-22T09:19:48.622Z,99.23
2019-02-22T09:22:23.009Z,97.60
2019-02-22T09:24:52.031Z,99.77
2019-02-22T09:27:22.855Z,94.80
2019-02-22T09:29:58.838Z,97.17
2019-02-22T09:32:26.198Z,98.77
2019-02-22T09:34:57.176Z,88.50
2019-02-22T09:37:28.142Z,85.87
2019-02-22T09:39:59.871Z,95.63
2019-02-22T09:42:30.662Z,89.83
2019-02-22T09:45:02.999Z,85.23
2019-02-22T09:47:33.807Z,82.20
2019-02-22T09:50:05.442Z,90.73
2019-02-22T09:52:36.636Z,88.37
2019-02-22T09:55:09.244Z,87.03
2019-02-22T09:57:40.270Z,88.63
2019-02-22T10:00:12.279Z,86.67
2019-02-22T10:02:44.814Z,96.77
2019-02-22T10:05:16.097Z,82.73
2019-02-22T10:07:47.060Z,84.87
2019-02-22T10:10:17.854Z,79.00
2019-02-22T10:12:48.629Z,87.27
2019-02-22T10:15:19.357Z,78.20
2019-02-22T10:17:50.276Z,75.27
2019-02-22T10:20:20.970Z,80.60
2019-02-22T10:22:51.774Z,76.87
2019-02-22T10:25:25.070Z,77.87
2019-02-22T10:27:55.861Z,73.37
2019-02-22T10:30:26.639Z,79.53
2019-02-22T10:32:57.279Z,69.90
2019-02-22T10:35:29.626Z,73.97
2019-02-22T10:38:00.487Z,77.17
2019-02-22T10:40:31.147Z,79.93
2019-02-22T10:43:02.808Z,77.13
2019-02-22T10:45:33.675Z,76.93
2019-02-22T10:48:04.503Z,73.20
2019-02-22T10:50:35.355Z,75.43
2019-02-22T10:53:07.766Z,71.80
2019-02-22T10:55:38.592Z,81.53
2019-02-22T10:58:10.298Z,80.63
2019-02-22T11:00:41.068Z,80.57
2019-02-22T11:03:11.902Z,70.03
2019-02-22T11:05:42.662Z,73.77
2019-02-22T11:08:13.326Z,72.10
2019-02-22T11:10:45.124Z,73.03
2019-02-22T11:13:15.880Z,76.87
2019-02-22T11:15:47.120Z,71.93
2019-02-22T11:18:17.886Z,73.17
2019-02-22T11:20:48.649Z,75.63
2019-02-22T11:23:20.173Z,73.70
2019-02-22T11:25:51.130Z,78.70
2019-02-22T11:28:21.976Z,80.40
2019-02-22T11:30:52.824Z,70.27
2019-02-22T11:33:25.151Z,78.60
2019-02-22T11:35:55.903Z,75.03
2019-02-22T11:38:26.582Z,72.00
2019-02-22T11:40:57.302Z,65.57
2019-02-22T11:43:27.992Z,64.23
2019-02-22T11:45:58.648Z,69.87
2019-02-22T11:48:30.790Z,66.37
2019-02-22T11:51:01.501Z,66.23
2019-02-22T11:53:32.278Z,64.23
2019-02-22T11:56:03.072Z,63.67
2019-02-22T11:58:33.916Z,64.63
2019-02-22T12:01:07.015Z,72.77
2019-02-22T12:03:37.734Z,75.43
2019-02-22T12:06:08.503Z,80.47
2019-02-22T12:08:39.184Z,81.97
2019-02-22T12:11:10.198Z,76.07
2019-02-22T12:13:41.039Z,73.20
2019-02-22T12:16:11.831Z,72.20
2019-02-22T12:18:42.572Z,70.93
2019-02-22T12:21:13.351Z,79.50
2019-02-22T12:23:44.223Z,72.23
2019-02-22T12:26:15.024Z,72.13
2019-02-22T12:28:45.754Z,67.30
2019-02-22T12:31:16.718Z,73.23
2019-02-22T12:33:47.477Z,72.37
2019-02-22T12:36:18.206Z,80.63
2019-02-22T12:38:48.966Z,68.93
2019-02-22T12:41:19.833Z,58.83
2019-02-22T12:43:50.527Z,50.43
2019-02-22T12:46:23.058Z,57.57
2019-02-22T12:48:53.837Z,49.53
2019-02-22T12:51:24.698Z,54.20
2019-02-22T12:53:56.078Z,44.80
2019-02-22T12:56:55.916Z,33.73
2019-02-22T12:58:59.242Z,46.23
2019-02-22T13:01:30.018Z,43.80
2019-02-22T13:04:00.981Z,41.73
2019-02-22T13:06:31.736Z,34.77
2019-02-22T13:09:04.466Z,29.20
2019-02-22T13:11:36.951Z,27.27
2019-02-22T13:14:07.856Z,29.27
2019-02-22T13:16:38.726Z,29.80
2019-02-22T13:19:09.485Z,38.47
2019-02-22T13:21:40.552Z,33.43
2019-02-22T13:24:22.236Z,35.17
2019-02-22T13:26:58.926Z,38.60
2019-02-22T13:29:29.722Z,37.30
2019-02-22T13:32:00.552Z,39.60
2019-02-22T13:34:31.351Z,42.77
2019-02-22T13:37:02.201Z,38.77
2019-02-22T13:39:33.072Z,40.73
2019-02-22T13:42:03.841Z,42.13
2019-02-22T13:44:34.500Z,41.30
2019-02-22T13:47:06.164Z,47.47
2019-02-22T13:49:36.958Z,48.30
2019-02-22T13:52:07.974Z,50.83
2019-02-22T13:54:38.789Z,55.77
2019-02-22T13:57:09.629Z,53.30
2019-02-22T13:59:40.422Z,52.00
2019-02-22T14:02:11.170Z,50.27
2019-02-22T14:04:41.834Z,53.67
2019-02-22T14:07:12.772Z,53.83
2019-02-22T14:09:43.586Z,56.37
2019-02-22T14:12:14.358Z,52.07
2019-02-22T14:14:45.197Z,35.60
2019-02-22T14:17:16.471Z,33.93
2019-02-22T14:19:48.042Z,34.73
2019-02-22T14:22:19.810Z,42.90
2019-02-22T14:24:50.760Z,44.97
2019-02-22T14:27:21.570Z,54.13
2019-02-22T14:29:52.343Z,52.33
2019-02-22T14:32:23.158Z,56.53
2019-02-22T14:34:53.891Z,45.80
2019-02-22T14:37:25.618Z,45.63
2019-02-22T14:40:03.000Z,43.50
2019-02-22T14:42:28.828Z,58.73
2019-02-22T14:45:01.629Z,58.27
2019-02-22T14:47:32.278Z,63.97
2019-02-22T14:50:03.045Z,71.77
2019-02-22T14:52:33.842Z,71.53
2019-02-22T14:55:04.872Z,71.03
2019-02-22T14:57:35.701Z,66.17
2019-02-22T15:00:09.559Z,66.57
2019-02-22T15:03:05.633Z,60.30
2019-02-22T15:06:06.425Z,57.33
2019-02-22T15:08:49.630Z,57.40
2019-02-22T15:11:23.501Z,63.63
2019-02-22T15:13:54.254Z,61.57
2019-02-22T15:16:47.202Z,54.90
2019-02-22T15:19:18.809Z,54.20
2019-02-22T15:21:49.607Z,51.17
2019-02-22T15:24:20.315Z,51.57
2019-02-22T15:26:53.893Z,50.43
2019-02-22T15:29:24.172Z,45.23
2019-02-22T15:31:54.936Z,46.00
2019-02-22T15:34:25.553Z,68.87
2019-02-22T15:36:57.709Z,32.10
2019-02-22T15:39:28.380Z,31.93
2019-02-22T15:41:59.094Z,30.80
2019-02-22T15:44:29.746Z,29.03
2019-02-22T15:47:11.308Z,33.83
2019-02-22T15:49:34.367Z,25.83
2019-02-22T15:52:05.212Z,26.30
2019-02-22T15:54:36.103Z,25.73
2019-02-22T15:57:07.083Z,26.90
2019-02-22T15:59:38.004Z,26.87
2019-02-22T16:02:08.750Z,27.57
2019-02-22T16:05:13.355Z,27.73
2019-02-22T16:07:45.045Z,27.00
2019-02-22T16:10:15.967Z,26.90
2019-02-22T16:12:46.874Z,29.80
2019-02-22T16:15:17.850Z,29.60
2019-02-22T16:17:48.574Z,29.03
2019-02-22T16:20:19.240Z,25.63
2019-02-22T16:22:51.772Z,30.40
2019-02-22T16:25:22.592Z,33.50
2019-02-22T16:27:53.346Z,28.47
2019-02-22T16:30:25.852Z,26.03
2019-02-22T16:32:56.876Z,29.40
2019-02-22T16:35:28.659Z,31.93
2019-02-22T16:37:59.624Z,32.90
2019-02-22T16:40:30.337Z,32.13
2019-02-22T16:43:01.131Z,32.13
2019-02-22T16:45:31.824Z,33.03
2019-02-22T16:48:02.520Z,31.73
2019-02-22T16:50:33.350Z,29.03
2019-02-22T16:53:05.560Z,35.13
2019-02-22T16:55:36.427Z,33.23
2019-02-22T16:58:07.352Z,39.33
2019-02-22T17:00:39.186Z,33.83
2019-02-22T17:03:10.546Z,34.60
2019-02-22T17:05:43.018Z,31.63
2019-02-22T17:08:13.760Z,34.43
2019-02-22T17:10:44.530Z,30.97
2019-02-22T17:13:15.249Z,30.57
2019-02-22T17:15:45.981Z,28.53
2019-02-22T17:18:16.739Z,30.07
2019-02-22T17:20:47.474Z,30.40
2019-02-22T17:23:18.189Z,31.43
2019-02-22T17:25:48.875Z,29.67
2019-02-22T17:28:19.642Z,29.57
2019-02-22T17:30:50.359Z,31.17
2019-02-22T17:33:21.141Z,32.27
2019-02-22T17:35:52.915Z,33.07
2019-02-22T17:38:23.611Z,29.83
2019-02-22T17:40:54.421Z,33.53
2019-02-22T17:43:25.199Z,33.77
2019-02-22T17:45:55.950Z,33.80
2019-02-22T17:48:27.270Z,33.70
2019-02-22T17:50:58.130Z,33.47
2019-02-22T17:53:28.933Z,37.00
2019-02-22T17:55:59.648Z,32.27
2019-02-22T17:58:30.454Z,34.70
2019-02-22T18:01:01.324Z,33.10
2019-02-22T18:03:32.210Z,35.77
2019-02-22T18:06:03.025Z,37.70
2019-02-22T18:08:33.790Z,36.07
2019-02-22T18:11:04.534Z,38.30
2019-02-22T18:13:35.350Z,35.53
2019-02-22T18:16:08.682Z,36.10
2019-02-22T18:18:39.482Z,34.07
2019-02-22T18:21:11.238Z,36.97
2019-02-22T18:23:45.036Z,37.80
2019-02-22T18:26:18.606Z,37.43
2019-02-22T18:28:49.374Z,33.97
2019-02-22T18:31:20.159Z,37.80
2019-02-22T18:33:50.959Z,38.37
2019-02-22T18:36:21.812Z,40.57
2019-02-22T18:38:52.770Z,37.37
2019-02-22T18:41:23.582Z,36.00
2019-02-22T18:43:54.422Z,37.07
2019-02-22T18:46:28.227Z,41.43
2019-02-22T18:48:59.876Z,40.03
2019-02-22T18:51:30.726Z,38.67
2019-02-22T18:54:01.614Z,41.07
2019-02-22T18:56:32.391Z,37.03
2019-02-22T18:59:03.270Z,38.37
2019-02-22T19:01:34.043Z,41.80
2019-02-22T19:04:04.843Z,44.20
2019-02-22T19:06:36.106Z,43.80
2019-02-22T19:09:07.337Z,42.37
2019-02-22T19:11:38.346Z,42.23
2019-02-22T19:14:09.157Z,44.87
2019-02-22T19:16:40.223Z,41.30
2019-02-22T19:19:11.023Z,50.90
2019-02-22T19:21:43.087Z,48.60
2019-02-22T19:24:13.828Z,45.80
2019-02-22T19:26:44.674Z,47.77
2019-02-22T19:29:15.543Z,40.73
2019-02-22T19:32:00.657Z,44.40
2019-02-22T19:34:31.340Z,47.80
2019-02-22T19:37:02.419Z,48.13
2019-02-22T19:39:33.399Z,47.73
2019-02-22T19:42:04.092Z,58.53
2019-02-22T19:44:35.199Z,55.50
2019-02-22T19:47:07.552Z,61.73
2019-02-22T19:49:38.340Z,58.43
2019-02-22T19:52:09.018Z,63.83
2019-02-22T19:54:39.770Z,59.47
2019-02-22T19:57:10.576Z,59.93
2019-02-22T19:59:41.401Z,61.10
2019-02-22T20:02:12.048Z,55.37
2019-02-22T20:04:42.870Z,58.27
2019-02-22T20:07:13.664Z,59.70
2019-02-22T20:09:44.476Z,61.87
2019-02-22T20:12:16.910Z,60.57
2019-02-22T20:14:47.617Z,61.43
2019-02-22T20:17:18.426Z,67.37
2019-02-22T20:19:49.272Z,63.47
2019-02-22T20:22:20.093Z,60.67
2019-02-22T20:24:52.406Z,60.67
2019-02-22T20:27:23.238Z,62.57
2019-02-22T20:29:55.797Z,61.40
2019-02-22T20:32:27.452Z,61.63
2019-02-22T20:34:58.389Z,58.33
2019-02-22T20:37:29.270Z,69.47
2019-02-22T20:40:00.312Z,65.77
2019-02-22T20:42:31.198Z,70.83
2019-02-22T20:45:02.096Z,68.77
2019-02-22T20:47:33.583Z,65.43
2019-02-22T20:50:04.597Z,72.90
2019-02-22T20:52:35.475Z,63.77
2019-02-22T20:55:06.997Z,67.37
2019-02-22T20:57:38.725Z,82.43
2019-02-22T21:00:11.897Z,68.90
2019-02-22T21:02:42.623Z,70.67
2019-02-22T21:05:13.329Z,77.67
2019-02-22T21:07:44.011Z,82.87
2019-02-22T21:10:15.863Z,80.33
2019-02-22T21:12:46.557Z,84.97
2019-02-22T21:15:17.349Z,99.13
2019-02-22T21:17:48.249Z,97.77
2019-02-22T21:20:19.031Z,96.53
2019-02-22T21:22:49.693Z,103.37
2019-02-22T21:25:20.371Z,93.57
2019-02-22T21:27:51.195Z,113.50
2019-02-22T21:30:21.985Z,102.53
2019-02-22T21:32:52.878Z,113.67
2019-02-22T21:35:23.749Z,106.37
2019-02-22T21:37:54.746Z,107.13
2019-02-22T21:40:25.598Z,104.80
2019-02-22T21:42:56.440Z,103.97
2019-02-22T21:45:27.096Z,115.90
2019-02-22T21:47:59.282Z,116.37
2019-02-22T21:50:29.935Z,101.90
2019-02-22T21:53:00.694Z,108.13
2019-02-22T21:55:31.435Z,110.80
2019-02-22T21:58:05.358Z,114.03
2019-02-22T22:00:36.118Z,123.43
2019-02-22T22:03:06.768Z,119.17
2019-02-22T22:05:37.431Z,116.90
2019-02-22T22:08:08.247Z,142.93
2019-02-22T22:10:39.051Z,120.63
2019-02-22T22:13:09.801Z,123.30
2019-02-22T22:15:40.491Z,113.67
2019-02-22T22:18:11.217Z,116.27
2019-02-22T22:20:41.910Z,124.40
2019-02-22T22:23:12.681Z,129.97
2019-02-22T22:25:43.387Z,129.00
2019-02-22T22:28:14.109Z,119.10
2019-02-22T22:30:44.910Z,125.57
2019-02-22T22:33:15.717Z,122.13
2019-02-22T22:35:46.546Z,126.33
2019-02-22T22:38:17.301Z,126.60
2019-02-22T22:40:48.086Z,132.10
2019-02-22T22:43:18.835Z,126.47
2019-02-22T22:45:49.600Z,122.93
2019-02-22T22:48:21.060Z,119.30
2019-02-22T22:50:51.838Z,123.93
2019-02-22T22:53:22.639Z,140.13
2019-02-22T22:55:56.111Z,123.97
2019-02-22T22:58:26.939Z,127.07
2019-02-22T23:01:15.799Z,135.53
2019-02-22T23:03:47.279Z,140.77
2019-02-22T23:06:18.385Z,146.70
2019-02-22T23:08:49.065Z,143.20
2019-02-22T23:11:19.816Z,172.70
2019-02-22T23:13:50.575Z,171.40
2019-02-22T23:16:21.311Z,146.77
2019-02-22T23:19:01.570Z,157.83
2019-02-22T23:21:26.086Z,141.87
2019-02-22T23:23:56.802Z,158.50
2019-02-22T23:26:27.722Z,145.80
2019-02-22T23:28:58.458Z,152.27
2019-02-22T23:31:29.265Z,150.73
2019-02-22T23:34:00.038Z,156.70
2019-02-22T23:36:30.730Z,154.10
2019-02-22T23:39:01.476Z,154.03
2019-02-22T23:41:33.874Z,165.67
2019-02-22T23:44:04.615Z,161.40
2019-02-22T23:46:35.411Z,154.00
2019-02-22T23:49:13.257Z,163.23
2019-02-22T23:51:38.689Z,186.67
2019-02-22T23:54:09.630Z,169.97
2019-02-22T23:56:40.382Z,177.50
2019-02-22T23:59:11.231Z,185.57
